createdAt,value
2023-04-10T00:03:10.032Z,69.20
2023-04-10T00:08:38.126Z,69.80
2023-04-10T00:14:05.942Z,70.20
2023-04-10T00:20:26.409Z,69.60
2023-04-10T00:25:54.310Z,69.60
2023-04-10T00:31:51.565Z,69.70
2023-04-10T00:37:19.528Z,69.80
2023-04-10T00:42:47.825Z,69.90
2023-04-10T00:48:16.318Z,69.90
2023-04-10T00:53:45.434Z,70.00
2023-04-10T00:59:13.957Z,70.10
2023-04-10T01:04:42.863Z,70.10
2023-04-10T01:10:41.323Z,70.20
2023-04-10T01:16:16.913Z,70.40
2023-04-10T01:21:46.457Z,70.20
2023-04-10T01:28:13.920Z,70.40
2023-04-10T01:33:53.133Z,70.40
2023-04-10T01:39:57.014Z,70.50
2023-04-10T01:45:29.050Z,70.60
2023-04-10T01:50:57.945Z,70.70
2023-04-10T01:56:27.844Z,70.80
2023-04-10T02:02:01.001Z,70.80
2023-04-10T02:07:45.711Z,70.80
2023-04-10T02:13:21.426Z,71.60
2023-04-10T02:18:51.816Z,70.90
2023-04-10T02:24:21.057Z,71.10
2023-04-10T02:29:49.845Z,71.10
2023-04-10T02:35:18.082Z,71.20
2023-04-10T02:40:46.566Z,71.20
2023-04-10T02:46:16.236Z,71.30
2023-04-10T02:51:44.164Z,71.30
2023-04-10T02:57:11.969Z,71.40
2023-04-10T03:02:40.008Z,71.60
2023-04-10T03:08:19.067Z,71.60
2023-04-10T03:13:47.530Z,71.60
2023-04-10T03:19:15.322Z,71.20
2023-04-10T03:24:43.348Z,71.70
2023-04-10T03:30:12.746Z,71.80
2023-04-10T03:35:43.529Z,71.80
2023-04-10T03:41:12.653Z,71.90
2023-04-10T03:46:41.394Z,72.00
2023-04-10T03:52:10.134Z,72.00
2023-04-10T03:57:53.215Z,71.90
2023-04-10T04:03:25.622Z,72.00
2023-04-10T04:09:25.563Z,72.10
2023-04-10T04:15:05.484Z,72.30
2023-04-10T04:20:51.722Z,72.40
2023-04-10T04:26:54.490Z,72.50
2023-04-10T04:32:48.149Z,72.50
2023-04-10T04:38:33.151Z,72.60
2023-04-10T04:44:14.284Z,72.70
2023-04-10T04:50:00.644Z,72.80
2023-04-10T04:55:46.789Z,72.80
2023-04-10T05:01:37.504Z,72.90
2023-04-10T05:07:24.854Z,72.90
2023-04-10T05:13:02.161Z,72.90
2023-04-10T05:18:49.810Z,73.00
2023-04-10T05:24:36.605Z,73.10
2023-04-10T05:30:18.454Z,73.10
2023-04-10T05:36:05.605Z,73.30
2023-04-10T05:42:08.583Z,73.30
2023-04-10T05:47:52.602Z,73.30
2023-04-10T05:53:39.292Z,73.40
2023-04-10T05:59:25.827Z,73.50
2023-04-10T06:05:22.658Z,73.70
2023-04-10T06:10:57.411Z,73.80
2023-04-10T06:16:25.800Z,73.80
2023-04-10T06:21:55.509Z,73.90
2023-04-10T06:27:25.763Z,74.00
2023-04-10T06:32:53.664Z,74.10
2023-04-10T06:38:22.159Z,74.20
2023-04-10T06:43:51.258Z,74.20
2023-04-10T06:49:19.083Z,74.30
2023-04-10T06:54:47.323Z,74.50
2023-04-10T07:00:15.748Z,74.50
2023-04-10T07:05:44.574Z,74.50
2023-04-10T07:11:12.360Z,74.50
2023-04-10T07:16:40.193Z,74.60
2023-04-10T07:22:08.440Z,74.50
2023-04-10T07:27:36.384Z,74.30
2023-04-10T07:33:04.491Z,74.20
2023-04-10T07:38:33.313Z,73.90
2023-04-10T07:44:01.228Z,73.80
2023-04-10T07:49:31.973Z,73.70
2023-04-10T07:55:03.659Z,73.90
2023-04-10T08:00:32.264Z,73.20
2023-04-10T08:06:01.228Z,73.10
2023-04-10T08:11:33.215Z,73.00
2023-04-10T08:17:01.880Z,72.80
2023-04-10T08:22:31.161Z,72.50
2023-04-10T08:28:00.542Z,71.40
2023-04-10T08:33:28.539Z,71.00
2023-04-10T08:38:56.657Z,70.80
2023-04-10T08:44:24.476Z,70.40
2023-04-10T08:49:58.059Z,70.10
2023-04-10T08:55:27.181Z,70.00
2023-04-10T09:00:55.492Z,69.80
2023-04-10T09:06:23.281Z,69.50
2023-04-10T09:11:56.800Z,69.50
2023-04-10T09:17:25.171Z,68.90
2023-04-10T09:22:53.754Z,68.90
2023-04-10T09:28:21.613Z,68.60
2023-04-10T09:34:07.873Z,68.40
2023-04-10T09:39:43.339Z,67.70
2023-04-10T09:45:11.243Z,67.40
2023-04-10T09:50:43.760Z,66.70
2023-04-10T09:56:13.131Z,66.40
2023-04-10T10:01:42.606Z,65.90
2023-04-10T10:07:10.713Z,65.70
2023-04-10T10:12:45.000Z,65.50
2023-04-10T10:18:53.974Z,63.80
2023-04-10T10:24:26.429Z,64.20
2023-04-10T10:29:55.905Z,64.00
2023-04-10T10:35:26.003Z,63.80
2023-04-10T10:41:13.209Z,63.50
2023-04-10T10:46:57.320Z,63.10
2023-04-10T10:52:44.844Z,62.40
2023-04-10T10:58:13.334Z,62.30
2023-04-10T11:03:47.417Z,62.10
2023-04-10T11:09:47.559Z,61.70
2023-04-10T11:15:24.124Z,61.60
2023-04-10T11:21:12.301Z,61.40
2023-04-10T11:26:44.278Z,61.30
2023-04-10T11:32:12.483Z,60.70
2023-04-10T11:37:40.814Z,60.70
2023-04-10T11:43:14.940Z,59.30
2023-04-10T11:48:42.962Z,59.30
2023-04-10T11:54:13.905Z,58.50
2023-04-10T11:59:42.903Z,58.00
2023-04-10T12:05:11.678Z,57.00
2023-04-10T12:10:47.570Z,56.40
2023-04-10T12:16:15.691Z,56.50
2023-04-10T12:21:47.477Z,56.20
2023-04-10T12:27:27.809Z,56.00
2023-04-10T12:32:56.999Z,55.00
2023-04-10T12:38:42.085Z,54.80
2023-04-10T12:44:14.575Z,54.70
2023-04-10T12:49:43.592Z,53.80
2023-04-10T12:55:21.562Z,54.20
2023-04-10T13:00:51.678Z,53.80
2023-04-10T13:06:20.788Z,53.80
2023-04-10T13:11:51.483Z,53.70
2023-04-10T13:17:21.961Z,53.00
2023-04-10T13:22:49.777Z,52.70
2023-04-10T13:28:18.991Z,52.60
2023-04-10T13:33:48.275Z,52.40
2023-04-10T13:39:16.527Z,52.40
2023-04-10T13:44:44.566Z,51.90
2023-04-10T13:50:13.684Z,51.90
2023-04-10T13:55:44.512Z,50.70
2023-04-10T14:01:13.490Z,48.00
2023-04-10T14:06:41.453Z,45.80
2023-04-10T14:12:09.337Z,43.80
2023-04-10T14:17:37.307Z,41.20
2023-04-10T14:23:06.228Z,37.50
2023-04-10T14:28:34.285Z,36.00
2023-04-10T14:34:03.440Z,33.50
2023-04-10T14:39:31.621Z,32.10
2023-04-10T14:45:00.587Z,31.40
2023-04-10T14:50:29.491Z,30.60
2023-04-10T14:55:57.360Z,30.40
2023-04-10T15:01:25.417Z,30.60
2023-04-10T15:06:53.456Z,31.50
2023-04-10T15:12:25.779Z,32.90
2023-04-10T15:17:57.410Z,34.30
2023-04-10T15:23:26.768Z,34.00
2023-04-10T15:28:54.679Z,34.00
2023-04-10T15:34:22.656Z,35.10
2023-04-10T15:39:50.984Z,34.20
2023-04-10T15:45:19.054Z,35.00
2023-04-10T15:50:46.936Z,36.10
2023-04-10T15:56:16.228Z,36.80
2023-04-10T16:01:44.649Z,37.10
2023-04-10T16:07:13.290Z,37.10
2023-04-10T16:12:41.711Z,37.30
2023-04-10T16:18:09.666Z,37.60
2023-04-10T16:23:39.759Z,38.00
2023-04-10T16:29:07.722Z,38.30
2023-04-10T16:34:35.801Z,38.60
2023-04-10T16:40:05.784Z,39.00
2023-04-10T16:45:33.645Z,39.30
2023-04-10T16:51:06.436Z,39.60
2023-04-10T16:56:34.500Z,39.90
2023-04-10T17:02:02.451Z,40.20
2023-04-10T17:07:30.644Z,40.50
2023-04-10T17:12:58.840Z,40.90
2023-04-10T17:18:27.892Z,41.30
2023-04-10T17:23:57.201Z,41.70
2023-04-10T17:29:26.024Z,42.00
2023-04-10T17:34:53.994Z,42.50
2023-04-10T17:40:22.387Z,42.60
2023-04-10T17:45:50.437Z,43.20
2023-04-10T17:51:18.632Z,43.10
2023-04-10T17:56:46.622Z,43.40
2023-04-10T18:02:14.755Z,43.70
2023-04-10T18:07:43.978Z,43.90
2023-04-10T18:13:12.186Z,44.10
2023-04-10T18:18:44.264Z,44.50
2023-04-10T18:24:14.117Z,44.60
2023-04-10T18:29:43.755Z,45.10
2023-04-10T18:35:11.800Z,45.20
2023-04-10T18:40:39.840Z,45.60
2023-04-10T18:46:08.070Z,45.70
2023-04-10T18:51:36.678Z,46.00
2023-04-10T18:57:07.631Z,46.10
2023-04-10T19:02:36.724Z,46.40
2023-04-10T19:08:06.065Z,46.70
2023-04-10T19:13:34.252Z,47.00
2023-04-10T19:19:06.155Z,47.30
2023-04-10T19:24:34.358Z,47.50
2023-04-10T19:30:02.477Z,48.00
2023-04-10T19:35:30.403Z,48.30
2023-04-10T19:40:59.445Z,48.40
2023-04-10T19:46:27.497Z,49.50
2023-04-10T19:51:55.293Z,49.90
2023-04-10T19:57:23.208Z,50.00
2023-04-10T20:02:51.343Z,50.20
2023-04-10T20:08:20.191Z,50.40
2023-04-10T20:13:48.321Z,50.80
2023-04-10T20:19:16.699Z,50.90
2023-04-10T20:24:44.545Z,51.10
2023-04-10T20:30:12.653Z,51.40
2023-04-10T20:35:40.708Z,51.60
2023-04-10T20:41:08.977Z,51.90
2023-04-10T20:46:36.991Z,52.20
2023-04-10T20:52:06.065Z,52.40
2023-04-10T20:57:34.217Z,52.60
2023-04-10T21:03:02.263Z,52.80
2023-04-10T21:08:30.424Z,53.00
2023-04-10T21:13:58.593Z,53.10
2023-04-10T21:19:26.467Z,53.30
2023-04-10T21:24:55.112Z,53.60
2023-04-10T21:30:23.069Z,53.80
2023-04-10T21:35:51.081Z,53.90
2023-04-10T21:41:19.025Z,54.00
2023-04-10T21:46:47.381Z,54.20
2023-04-10T21:52:15.383Z,54.30
2023-04-10T21:57:43.250Z,54.50
2023-04-10T22:03:11.841Z,54.60
2023-04-10T22:08:41.428Z,54.80
2023-04-10T22:14:17.240Z,55.10
2023-04-10T22:19:46.034Z,55.20
2023-04-10T22:25:13.922Z,55.30
2023-04-10T22:30:41.876Z,55.40
2023-04-10T22:36:10.808Z,55.70
2023-04-10T22:41:38.834Z,55.70
2023-04-10T22:47:06.752Z,55.90
2023-04-10T22:52:34.785Z,56.10
2023-04-10T22:58:02.570Z,56.20
2023-04-10T23:03:30.940Z,56.30
2023-04-10T23:08:58.818Z,56.50
2023-04-10T23:14:26.574Z,56.60
2023-04-10T23:19:54.754Z,56.80
2023-04-10T23:25:23.031Z,56.90
2023-04-10T23:30:50.872Z,56.90
2023-04-10T23:36:18.806Z,57.00
2023-04-10T23:41:46.668Z,57.10
2023-04-10T23:47:14.668Z,57.10
2023-04-10T23:52:42.483Z,57.10
2023-04-10T23:58:10.581Z,57.20
